Terminal Aerodrome Forecast
Issued by NWS

Home | Current Version | Previous Version | Graphics & Text | Print | Product List | Glossary On
Versions: 1 2 3 4 5 6 7 8 9 10 11 12 13 14 15 16
000
FTUS43 KGRB 241100
TAFCWA
TAF
KCWA 241120Z 2412/2512 VRB03KT P6SM SCT060
      TEMPO 2412/2416 BKN060
     FM241600 23007KT P6SM SCT060 SCT200
     FM250500 16006KT P6SM SCT060 BKN100=

USA.gov is the U.S. government's official web portal to all federal, state and local government web resources and services.